sensor_id;sensor_type;location;lat;lon;timestamp;P1;durP1;ratioP1;P2;durP2;ratioP2
7116;SDS011;3600;48.568;7.870;2023-01-15T00:01:42;0.60;;;0.60;;
7116;SDS011;3600;48.568;7.870;2023-01-15T00:04:10;0.50;;;0.50;;
7116;SDS011;3600;48.568;7.870;2023-01-15T00:06:38;0.45;;;0.45;;
7116;SDS011;3600;48.568;7.870;2023-01-15T00:09:06;0.63;;;0.60;;
7116;SDS011;3600;48.568;7.870;2023-01-15T00:11:36;0.63;;;0.63;;
7116;SDS011;3600;48.568;7.870;2023-01-15T00:14:03;0.60;;;0.60;;
7116;SDS011;3600;48.568;7.870;2023-01-15T00:16:30;0.68;;;0.55;;
7116;SDS011;3600;48.568;7.870;2023-01-15T00:18:58;0.57;;;0.57;;
7116;SDS011;3600;48.568;7.870;2023-01-15T00:21:26;0.70;;;0.50;;
7116;SDS011;3600;48.568;7.870;2023-01-15T00:23:54;2.08;;;0.60;;
7116;SDS011;3600;48.568;7.870;2023-01-15T00:26:39;0.63;;;0.63;;
7116;SDS011;3600;48.568;7.870;2023-01-15T00:29:25;0.60;;;0.60;;
7116;SDS011;3600;48.568;7.870;2023-01-15T00:31:58;0.60;;;0.60;;
7116;SDS011;3600;48.568;7.870;2023-01-15T00:34:30;0.55;;;0.55;;
7116;SDS011;3600;48.568;7.870;2023-01-15T00:36:57;1.45;;;0.63;;
7116;SDS011;3600;48.568;7.870;2023-01-15T00:39:24;0.50;;;0.50;;
7116;SDS011;3600;48.568;7.870;2023-01-15T00:41:52;0.30;;;0.30;;
7116;SDS011;3600;48.568;7.870;2023-01-15T00:44:19;0.45;;;0.38;;
7116;SDS011;3600;48.568;7.870;2023-01-15T00:46:47;0.80;;;0.70;;
7116;SDS011;3600;48.568;7.870;2023-01-15T00:49:14;0.52;;;0.50;;
7116;SDS011;3600;48.568;7.870;2023-01-15T00:51:41;0.98;;;0.70;;
7116;SDS011;3600;48.568;7.870;2023-01-15T00:54:08;0.52;;;0.52;;
7116;SDS011;3600;48.568;7.870;2023-01-15T00:56:35;0.57;;;0.57;;
7116;SDS011;3600;48.568;7.870;2023-01-15T00:59:02;0.70;;;0.70;;
7116;SDS011;3600;48.568;7.870;2023-01-15T01:01:30;1.63;;;0.50;;
7116;SDS011;3600;48.568;7.870;2023-01-15T01:03:58;0.45;;;0.40;;
7116;SDS011;3600;48.568;7.870;2023-01-15T01:06:25;0.47;;;0.47;;
7116;SDS011;3600;48.568;7.870;2023-01-15T01:08:52;0.40;;;0.40;;
7116;SDS011;3600;48.568;7.870;2023-01-15T01:11:21;1.23;;;0.47;;
7116;SDS011;3600;48.568;7.870;2023-01-15T01:13:52;0.50;;;0.50;;
7116;SDS011;3600;48.568;7.870;2023-01-15T01:16:22;0.55;;;0.52;;
7116;SDS011;3600;48.568;7.870;2023-01-15T01:18:50;0.38;;;0.38;;
7116;SDS011;3600;48.568;7.870;2023-01-15T01:21:17;0.75;;;0.40;;
7116;SDS011;3600;48.568;7.870;2023-01-15T01:23:45;0.73;;;0.50;;
7116;SDS011;3600;48.568;7.870;2023-01-15T01:26:11;0.47;;;0.47;;
7116;SDS011;3600;48.568;7.870;2023-01-15T01:28:39;1.65;;;0.70;;
7116;SDS011;3600;48.568;7.870;2023-01-15T01:31:07;0.68;;;0.45;;
7116;SDS011;3600;48.568;7.870;2023-01-15T01:33:34;1.60;;;0.40;;
7116;SDS011;3600;48.568;7.870;2023-01-15T01:36:01;0.50;;;0.50;;
7116;SDS011;3600;48.568;7.870;2023-01-15T01:38:28;1.90;;;0.52;;
7116;SDS011;3600;48.568;7.870;2023-01-15T01:40:55;0.90;;;0.60;;
7116;SDS011;3600;48.568;7.870;2023-01-15T01:43:23;1.25;;;0.65;;
7116;SDS011;3600;48.568;7.870;2023-01-15T01:45:52;1.23;;;0.60;;
7116;SDS011;3600;48.568;7.870;2023-01-15T01:48:20;0.40;;;0.40;;
7116;SDS011;3600;48.568;7.870;2023-01-15T01:50:56;0.30;;;0.30;;
7116;SDS011;3600;48.568;7.870;2023-01-15T01:53:26;1.00;;;0.45;;
7116;SDS011;3600;48.568;7.870;2023-01-15T01:55:55;0.45;;;0.45;;
7116;SDS011;3600;48.568;7.870;2023-01-15T01:58:24;0.40;;;0.30;;
7116;SDS011;3600;48.568;7.870;2023-01-15T02:00:54;0.28;;;0.28;;
7116;SDS011;3600;48.568;7.870;2023-01-15T02:03:22;1.30;;;0.38;;
7116;SDS011;3600;48.568;7.870;2023-01-15T02:05:53;0.30;;;0.30;;
7116;SDS011;3600;48.568;7.870;2023-01-15T02:08:23;0.35;;;0.32;;
7116;SDS011;3600;48.568;7.870;2023-01-15T02:10:53;0.28;;;0.28;;
7116;SDS011;3600;48.568;7.870;2023-01-15T02:13:24;0.40;;;0.38;;
7116;SDS011;3600;48.568;7.870;2023-01-15T02:16:12;0.30;;;0.30;;
7116;SDS011;3600;48.568;7.870;2023-01-15T02:21:50;1.33;;;0.35;;
7116;SDS011;3600;48.568;7.870;2023-01-15T02:27:14;0.50;;;0.40;;
7116;SDS011;3600;48.568;7.870;2023-01-15T02:29:45;1.55;;;0.40;;
7116;SDS011;3600;48.568;7.870;2023-01-15T02:35:21;0.95;;;0.57;;
7116;SDS011;3600;48.568;7.870;2023-01-15T02:37:53;0.40;;;0.40;;
7116;SDS011;3600;48.568;7.870;2023-01-15T02:40:24;0.38;;;0.38;;
7116;SDS011;3600;48.568;7.870;2023-01-15T02:42:53;1.33;;;0.40;;
7116;SDS011;3600;48.568;7.870;2023-01-15T02:45:23;0.30;;;0.30;;
7116;SDS011;3600;48.568;7.870;2023-01-15T02:47:54;1.42;;;0.47;;
7116;SDS011;3600;48.568;7.870;2023-01-15T02:50:26;0.30;;;0.28;;
7116;SDS011;3600;48.568;7.870;2023-01-15T02:52:59;1.55;;;0.50;;
7116;SDS011;3600;48.568;7.870;2023-01-15T02:55:31;1.45;;;0.40;;
7116;SDS011;3600;48.568;7.870;2023-01-15T02:58:03;1.17;;;0.40;;
7116;SDS011;3600;48.568;7.870;2023-01-15T03:00:33;0.50;;;0.50;;
7116;SDS011;3600;48.568;7.870;2023-01-15T03:03:17;0.40;;;0.40;;
7116;SDS011;3600;48.568;7.870;2023-01-15T03:05:55;0.55;;;0.40;;
7116;SDS011;3600;48.568;7.870;2023-01-15T03:08:25;0.50;;;0.50;;
7116;SDS011;3600;48.568;7.870;2023-01-15T03:13:24;0.45;;;0.45;;
7116;SDS011;3600;48.568;7.870;2023-01-15T03:15:59;0.45;;;0.43;;
7116;SDS011;3600;48.568;7.870;2023-01-15T03:21:27;0.30;;;0.30;;
7116;SDS011;3600;48.568;7.870;2023-01-15T03:24:09;0.55;;;0.43;;
7116;SDS011;3600;48.568;7.870;2023-01-15T03:26:38;0.55;;;0.40;;
7116;SDS011;3600;48.568;7.870;2023-01-15T03:29:05;0.75;;;0.35;;
7116;SDS011;3600;48.568;7.870;2023-01-15T03:31:34;1.42;;;0.52;;
7116;SDS011;3600;48.568;7.870;2023-01-15T03:34:01;0.30;;;0.30;;
7116;SDS011;3600;48.568;7.870;2023-01-15T03:36:28;0.40;;;0.40;;
7116;SDS011;3600;48.568;7.870;2023-01-15T03:38:56;0.30;;;0.30;;
7116;SDS011;3600;48.568;7.870;2023-01-15T03:41:26;0.20;;;0.20;;
7116;SDS011;3600;48.568;7.870;2023-01-15T03:44:22;0.45;;;0.30;;
7116;SDS011;3600;48.568;7.870;2023-01-15T03:49:55;0.30;;;0.30;;
7116;SDS011;3600;48.568;7.870;2023-01-15T03:52:49;0.45;;;0.20;;
7116;SDS011;3600;48.568;7.870;2023-01-15T03:55:25;0.20;;;0.20;;
7116;SDS011;3600;48.568;7.870;2023-01-15T03:58:01;0.90;;;0.60;;
7116;SDS011;3600;48.568;7.870;2023-01-15T04:00:37;0.45;;;0.30;;
7116;SDS011;3600;48.568;7.870;2023-01-15T04:03:08;0.40;;;0.40;;
7116;SDS011;3600;48.568;7.870;2023-01-15T04:05:37;1.85;;;0.45;;
7116;SDS011;3600;48.568;7.870;2023-01-15T04:08:05;0.30;;;0.25;;
7116;SDS011;3600;48.568;7.870;2023-01-15T04:10:33;0.25;;;0.25;;
7116;SDS011;3600;48.568;7.870;2023-01-15T04:13:00;1.13;;;0.43;;
7116;SDS011;3600;48.568;7.870;2023-01-15T04:15:27;0.57;;;0.30;;
7116;SDS011;3600;48.568;7.870;2023-01-15T04:17:54;0.88;;;0.40;;
7116;SDS011;3600;48.568;7.870;2023-01-15T04:20:20;2.90;;;0.40;;
7116;SDS011;3600;48.568;7.870;2023-01-15T04:22:47;1.73;;;1.20;;
7116;SDS011;3600;48.568;7.870;2023-01-15T04:25:14;0.20;;;0.20;;
7116;SDS011;3600;48.568;7.870;2023-01-15T04:27:41;1.10;;;0.30;;
7116;SDS011;3600;48.568;7.870;2023-01-15T04:30:07;0.50;;;0.50;;
7116;SDS011;3600;48.568;7.870;2023-01-15T04:32:35;0.40;;;0.40;;
7116;SDS011;3600;48.568;7.870;2023-01-15T04:35:01;0.20;;;0.20;;
7116;SDS011;3600;48.568;7.870;2023-01-15T04:37:28;1.50;;;0.20;;
7116;SDS011;3600;48.568;7.870;2023-01-15T04:39:55;0.30;;;0.30;;
7116;SDS011;3600;48.568;7.870;2023-01-15T04:42:21;0.20;;;0.20;;
7116;SDS011;3600;48.568;7.870;2023-01-15T04:45:07;0.27;;;0.20;;
7116;SDS011;3600;48.568;7.870;2023-01-15T04:47:35;0.30;;;0.30;;
7116;SDS011;3600;48.568;7.870;2023-01-15T04:50:02;0.10;;;0.10;;
7116;SDS011;3600;48.568;7.870;2023-01-15T04:52:29;0.20;;;0.20;;
7116;SDS011;3600;48.568;7.870;2023-01-15T04:54:55;0.20;;;0.20;;
7116;SDS011;3600;48.568;7.870;2023-01-15T04:57:22;0.83;;;0.23;;
7116;SDS011;3600;48.568;7.870;2023-01-15T04:59:49;0.20;;;0.20;;
7116;SDS011;3600;48.568;7.870;2023-01-15T05:02:16;0.10;;;0.10;;
7116;SDS011;3600;48.568;7.870;2023-01-15T05:04:43;0.20;;;0.20;;
7116;SDS011;3600;48.568;7.870;2023-01-15T05:07:10;0.50;;;0.50;;
7116;SDS011;3600;48.568;7.870;2023-01-15T05:09:36;0.50;;;0.50;;
7116;SDS011;3600;48.568;7.870;2023-01-15T05:12:03;0.30;;;0.30;;
7116;SDS011;3600;48.568;7.870;2023-01-15T05:14:30;0.40;;;0.40;;
7116;SDS011;3600;48.568;7.870;2023-01-15T05:16:57;0.93;;;0.43;;
7116;SDS011;3600;48.568;7.870;2023-01-15T05:19:24;1.07;;;1.07;;
7116;SDS011;3600;48.568;7.870;2023-01-15T05:21:50;0.50;;;0.50;;
7116;SDS011;3600;48.568;7.870;2023-01-15T05:24:17;1.03;;;0.90;;
7116;SDS011;3600;48.568;7.870;2023-01-15T05:26:44;0.60;;;0.50;;
7116;SDS011;3600;48.568;7.870;2023-01-15T05:29:11;0.70;;;0.70;;
7116;SDS011;3600;48.568;7.870;2023-01-15T05:31:38;0.70;;;0.70;;
7116;SDS011;3600;48.568;7.870;2023-01-15T05:34:08;0.33;;;0.33;;
7116;SDS011;3600;48.568;7.870;2023-01-15T05:36:35;1.20;;;1.20;;
7116;SDS011;3600;48.568;7.870;2023-01-15T05:39:02;0.53;;;0.53;;
7116;SDS011;3600;48.568;7.870;2023-01-15T05:41:29;0.73;;;0.73;;
7116;SDS011;3600;48.568;7.870;2023-01-15T05:44:18;1.10;;;1.10;;
7116;SDS011;3600;48.568;7.870;2023-01-15T05:46:50;1.80;;;0.53;;
7116;SDS011;3600;48.568;7.870;2023-01-15T05:49:20;1.47;;;1.30;;
7116;SDS011;3600;48.568;7.870;2023-01-15T05:51:49;1.37;;;1.27;;
7116;SDS011;3600;48.568;7.870;2023-01-15T05:54:18;0.70;;;0.70;;
7116;SDS011;3600;48.568;7.870;2023-01-15T05:56:46;0.60;;;0.60;;
7116;SDS011;3600;48.568;7.870;2023-01-15T05:59:15;1.30;;;0.40;;
7116;SDS011;3600;48.568;7.870;2023-01-15T06:01:43;0.47;;;0.40;;
7116;SDS011;3600;48.568;7.870;2023-01-15T06:04:10;0.43;;;0.40;;
7116;SDS011;3600;48.568;7.870;2023-01-15T06:06:39;0.40;;;0.40;;
7116;SDS011;3600;48.568;7.870;2023-01-15T06:09:07;1.10;;;0.50;;
7116;SDS011;3600;48.568;7.870;2023-01-15T06:11:35;0.30;;;0.20;;
7116;SDS011;3600;48.568;7.870;2023-01-15T06:14:01;0.30;;;0.30;;
7116;SDS011;3600;48.568;7.870;2023-01-15T06:16:28;0.20;;;0.20;;
7116;SDS011;3600;48.568;7.870;2023-01-15T06:18:58;0.20;;;0.20;;
7116;SDS011;3600;48.568;7.870;2023-01-15T06:21:27;0.30;;;0.30;;
7116;SDS011;3600;48.568;7.870;2023-01-15T06:23:53;0.27;;;0.27;;
7116;SDS011;3600;48.568;7.870;2023-01-15T06:26:20;0.37;;;0.30;;
7116;SDS011;3600;48.568;7.870;2023-01-15T06:28:47;0.50;;;0.50;;
7116;SDS011;3600;48.568;7.870;2023-01-15T06:31:15;0.40;;;0.40;;
7116;SDS011;3600;48.568;7.870;2023-01-15T06:33:44;0.33;;;0.33;;
7116;SDS011;3600;48.568;7.870;2023-01-15T06:36:14;0.50;;;0.50;;
7116;SDS011;3600;48.568;7.870;2023-01-15T06:38:43;0.70;;;0.70;;
7116;SDS011;3600;48.568;7.870;2023-01-15T06:41:14;0.73;;;0.73;;
7116;SDS011;3600;48.568;7.870;2023-01-15T06:44:01;0.70;;;0.40;;
7116;SDS011;3600;48.568;7.870;2023-01-15T06:46:47;0.40;;;0.40;;
7116;SDS011;3600;48.568;7.870;2023-01-15T06:49:34;0.60;;;0.60;;
7116;SDS011;3600;48.568;7.870;2023-01-15T06:52:02;0.93;;;0.47;;
7116;SDS011;3600;48.568;7.870;2023-01-15T06:54:30;0.50;;;0.50;;
7116;SDS011;3600;48.568;7.870;2023-01-15T06:56:57;0.83;;;0.73;;
7116;SDS011;3600;48.568;7.870;2023-01-15T06:59:24;0.50;;;0.50;;
7116;SDS011;3600;48.568;7.870;2023-01-15T07:01:51;0.60;;;0.60;;
7116;SDS011;3600;48.568;7.870;2023-01-15T07:04:18;1.20;;;0.60;;
7116;SDS011;3600;48.568;7.870;2023-01-15T07:06:44;0.60;;;0.50;;
7116;SDS011;3600;48.568;7.870;2023-01-15T07:09:11;0.50;;;0.50;;
7116;SDS011;3600;48.568;7.870;2023-01-15T07:11:38;0.60;;;0.60;;
7116;SDS011;3600;48.568;7.870;2023-01-15T07:14:18;0.30;;;0.30;;
7116;SDS011;3600;48.568;7.870;2023-01-15T07:16:47;0.50;;;0.50;;
7116;SDS011;3600;48.568;7.870;2023-01-15T07:19:14;0.30;;;0.30;;
7116;SDS011;3600;48.568;7.870;2023-01-15T07:21:41;0.30;;;0.30;;
7116;SDS011;3600;48.568;7.870;2023-01-15T07:24:08;0.40;;;0.40;;
7116;SDS011;3600;48.568;7.870;2023-01-15T07:26:36;0.30;;;0.30;;
7116;SDS011;3600;48.568;7.870;2023-01-15T07:29:03;0.40;;;0.40;;
7116;SDS011;3600;48.568;7.870;2023-01-15T07:31:31;0.30;;;0.30;;
7116;SDS011;3600;48.568;7.870;2023-01-15T07:33:58;0.33;;;0.30;;
7116;SDS011;3600;48.568;7.870;2023-01-15T07:36:24;0.40;;;0.40;;
7116;SDS011;3600;48.568;7.870;2023-01-15T07:38:51;0.33;;;0.33;;
7116;SDS011;3600;48.568;7.870;2023-01-15T07:41:18;0.30;;;0.30;;
7116;SDS011;3600;48.568;7.870;2023-01-15T07:44:03;0.20;;;0.20;;
7116;SDS011;3600;48.568;7.870;2023-01-15T07:46:49;2.13;;;1.13;;
7116;SDS011;3600;48.568;7.870;2023-01-15T07:49:34;0.30;;;0.30;;
7116;SDS011;3600;48.568;7.870;2023-01-15T07:52:14;0.30;;;0.30;;
7116;SDS011;3600;48.568;7.870;2023-01-15T07:54:45;0.30;;;0.30;;
7116;SDS011;3600;48.568;7.870;2023-01-15T07:57:14;0.60;;;0.40;;
7116;SDS011;3600;48.568;7.870;2023-01-15T07:59:46;0.40;;;0.40;;
7116;SDS011;3600;48.568;7.870;2023-01-15T08:02:14;0.70;;;0.70;;
7116;SDS011;3600;48.568;7.870;2023-01-15T08:04:40;0.93;;;0.83;;
7116;SDS011;3600;48.568;7.870;2023-01-15T08:07:08;0.50;;;0.50;;
7116;SDS011;3600;48.568;7.870;2023-01-15T08:09:35;0.50;;;0.50;;
7116;SDS011;3600;48.568;7.870;2023-01-15T08:12:03;0.50;;;0.50;;
7116;SDS011;3600;48.568;7.870;2023-01-15T08:14:48;0.30;;;0.30;;
7116;SDS011;3600;48.568;7.870;2023-01-15T08:17:34;0.50;;;0.50;;
7116;SDS011;3600;48.568;7.870;2023-01-15T08:20:03;0.40;;;0.40;;
7116;SDS011;3600;48.568;7.870;2023-01-15T08:22:31;0.40;;;0.40;;
7116;SDS011;3600;48.568;7.870;2023-01-15T08:24:58;0.87;;;0.87;;
7116;SDS011;3600;48.568;7.870;2023-01-15T08:27:25;0.70;;;0.70;;
7116;SDS011;3600;48.568;7.870;2023-01-15T08:29:52;0.90;;;0.90;;
7116;SDS011;3600;48.568;7.870;2023-01-15T08:32:18;1.10;;;1.00;;
7116;SDS011;3600;48.568;7.870;2023-01-15T08:34:45;0.70;;;0.70;;
7116;SDS011;3600;48.568;7.870;2023-01-15T08:37:12;0.50;;;0.50;;
7116;SDS011;3600;48.568;7.870;2023-01-15T08:39:39;0.30;;;0.30;;
7116;SDS011;3600;48.568;7.870;2023-01-15T08:42:05;0.30;;;0.30;;
7116;SDS011;3600;48.568;7.870;2023-01-15T08:44:33;0.40;;;0.40;;
7116;SDS011;3600;48.568;7.870;2023-01-15T08:47:00;0.40;;;0.40;;
7116;SDS011;3600;48.568;7.870;2023-01-15T08:49:27;0.40;;;0.40;;
7116;SDS011;3600;48.568;7.870;2023-01-15T08:51:53;0.40;;;0.40;;
7116;SDS011;3600;48.568;7.870;2023-01-15T08:54:21;0.43;;;0.43;;
7116;SDS011;3600;48.568;7.870;2023-01-15T08:56:49;0.50;;;0.50;;
7116;SDS011;3600;48.568;7.870;2023-01-15T08:59:16;1.47;;;0.53;;
7116;SDS011;3600;48.568;7.870;2023-01-15T09:01:44;0.60;;;0.40;;
7116;SDS011;3600;48.568;7.870;2023-01-15T09:04:14;1.50;;;0.43;;
7116;SDS011;3600;48.568;7.870;2023-01-15T09:06:42;0.40;;;0.40;;
7116;SDS011;3600;48.568;7.870;2023-01-15T09:09:09;1.07;;;0.80;;
7116;SDS011;3600;48.568;7.870;2023-01-15T09:11:38;0.83;;;0.67;;
7116;SDS011;3600;48.568;7.870;2023-01-15T09:14:06;0.40;;;0.40;;
7116;SDS011;3600;48.568;7.870;2023-01-15T09:16:53;0.40;;;0.40;;
7116;SDS011;3600;48.568;7.870;2023-01-15T09:19:21;0.40;;;0.40;;
7116;SDS011;3600;48.568;7.870;2023-01-15T09:21:47;0.50;;;0.50;;
7116;SDS011;3600;48.568;7.870;2023-01-15T09:24:14;0.30;;;0.30;;
7116;SDS011;3600;48.568;7.870;2023-01-15T09:26:41;0.30;;;0.30;;
7116;SDS011;3600;48.568;7.870;2023-01-15T09:29:08;0.40;;;0.40;;
7116;SDS011;3600;48.568;7.870;2023-01-15T09:31:35;1.90;;;0.40;;
7116;SDS011;3600;48.568;7.870;2023-01-15T09:34:02;0.77;;;0.77;;
7116;SDS011;3600;48.568;7.870;2023-01-15T09:36:31;1.33;;;0.73;;
7116;SDS011;3600;48.568;7.870;2023-01-15T09:39:00;2.00;;;0.93;;
7116;SDS011;3600;48.568;7.870;2023-01-15T09:42:12;1.60;;;1.50;;
7116;SDS011;3600;48.568;7.870;2023-01-15T09:44:43;0.60;;;0.60;;
7116;SDS011;3600;48.568;7.870;2023-01-15T09:50:14;0.90;;;0.90;;
7116;SDS011;3600;48.568;7.870;2023-01-15T09:55:47;2.33;;;2.13;;
7116;SDS011;3600;48.568;7.870;2023-01-15T09:58:16;3.57;;;2.80;;
7116;SDS011;3600;48.568;7.870;2023-01-15T10:00:47;1.50;;;1.40;;
7116;SDS011;3600;48.568;7.870;2023-01-15T10:03:50;0.90;;;0.90;;
7116;SDS011;3600;48.568;7.870;2023-01-15T10:09:17;0.60;;;0.60;;
7116;SDS011;3600;48.568;7.870;2023-01-15T10:11:50;3.90;;;1.83;;
7116;SDS011;3600;48.568;7.870;2023-01-15T10:14:51;0.60;;;0.60;;
7116;SDS011;3600;48.568;7.870;2023-01-15T10:17:44;0.90;;;0.90;;
7116;SDS011;3600;48.568;7.870;2023-01-15T10:23:41;0.90;;;0.90;;
7116;SDS011;3600;48.568;7.870;2023-01-15T10:26:31;1.30;;;1.20;;
7116;SDS011;3600;48.568;7.870;2023-01-15T10:37:57;5.70;;;3.00;;
7116;SDS011;3600;48.568;7.870;2023-01-15T10:46:10;6.53;;;2.40;;
7116;SDS011;3600;48.568;7.870;2023-01-15T10:48:47;3.03;;;2.27;;
7116;SDS011;3600;48.568;7.870;2023-01-15T10:51:17;5.80;;;3.13;;
7116;SDS011;3600;48.568;7.870;2023-01-15T10:54:24;10.20;;;4.20;;
7116;SDS011;3600;48.568;7.870;2023-01-15T11:00:04;5.67;;;2.40;;
7116;SDS011;3600;48.568;7.870;2023-01-15T11:02:33;2.27;;;1.87;;
7116;SDS011;3600;48.568;7.870;2023-01-15T11:05:19;2.10;;;1.57;;
7116;SDS011;3600;48.568;7.870;2023-01-15T11:07:50;14.00;;;7.30;;
7116;SDS011;3600;48.568;7.870;2023-01-15T11:10:38;11.93;;;5.87;;
7116;SDS011;3600;48.568;7.870;2023-01-15T11:13:23;16.57;;;7.40;;
7116;SDS011;3600;48.568;7.870;2023-01-15T11:16:12;9.60;;;4.67;;
7116;SDS011;3600;48.568;7.870;2023-01-15T11:19:03;2.40;;;2.20;;
7116;SDS011;3600;48.568;7.870;2023-01-15T11:21:50;1.43;;;1.33;;
7116;SDS011;3600;48.568;7.870;2023-01-15T11:24:18;1.00;;;0.97;;
7116;SDS011;3600;48.568;7.870;2023-01-15T11:26:47;0.70;;;0.70;;
7116;SDS011;3600;48.568;7.870;2023-01-15T11:29:23;0.67;;;0.67;;
7116;SDS011;3600;48.568;7.870;2023-01-15T11:32:01;0.83;;;0.70;;
7116;SDS011;3600;48.568;7.870;2023-01-15T11:34:29;1.33;;;0.70;;
7116;SDS011;3600;48.568;7.870;2023-01-15T11:37:02;1.00;;;0.73;;
7116;SDS011;3600;48.568;7.870;2023-01-15T11:39:30;0.53;;;0.53;;
7116;SDS011;3600;48.568;7.870;2023-01-15T11:41:58;1.03;;;0.70;;
7116;SDS011;3600;48.568;7.870;2023-01-15T11:44:55;0.40;;;0.40;;
7116;SDS011;3600;48.568;7.870;2023-01-15T11:47:50;0.50;;;0.50;;
7116;SDS011;3600;48.568;7.870;2023-01-15T11:50:54;0.70;;;0.70;;
7116;SDS011;3600;48.568;7.870;2023-01-15T11:53:26;0.67;;;0.67;;
7116;SDS011;3600;48.568;7.870;2023-01-15T11:55:58;1.03;;;0.77;;
7116;SDS011;3600;48.568;7.870;2023-01-15T11:58:33;1.00;;;0.90;;
7116;SDS011;3600;48.568;7.870;2023-01-15T12:01:07;1.20;;;1.10;;
7116;SDS011;3600;48.568;7.870;2023-01-15T12:03:38;1.03;;;1.03;;
7116;SDS011;3600;48.568;7.870;2023-01-15T12:06:07;1.13;;;1.10;;
7116;SDS011;3600;48.568;7.870;2023-01-15T12:08:47;0.87;;;0.87;;
7116;SDS011;3600;48.568;7.870;2023-01-15T12:14:07;0.87;;;0.87;;
7116;SDS011;3600;48.568;7.870;2023-01-15T12:22:12;0.47;;;0.47;;
7116;SDS011;3600;48.568;7.870;2023-01-15T12:29:47;0.40;;;0.40;;
7116;SDS011;3600;48.568;7.870;2023-01-15T12:32:21;2.73;;;1.13;;
7116;SDS011;3600;48.568;7.870;2023-01-15T12:34:56;1.13;;;0.87;;
7116;SDS011;3600;48.568;7.870;2023-01-15T12:37:32;0.90;;;0.80;;
7116;SDS011;3600;48.568;7.870;2023-01-15T12:43:07;0.40;;;0.40;;
7116;SDS011;3600;48.568;7.870;2023-01-15T12:46:09;0.70;;;0.70;;
7116;SDS011;3600;48.568;7.870;2023-01-15T12:51:24;1.37;;;0.60;;
7116;SDS011;3600;48.568;7.870;2023-01-15T12:54:00;0.83;;;0.70;;
7116;SDS011;3600;48.568;7.870;2023-01-15T13:04:21;1.53;;;1.10;;
7116;SDS011;3600;48.568;7.870;2023-01-15T13:07:04;1.37;;;0.67;;
7116;SDS011;3600;48.568;7.870;2023-01-15T13:09:44;2.20;;;0.80;;
7116;SDS011;3600;48.568;7.870;2023-01-15T13:12:32;2.33;;;0.60;;
7116;SDS011;3600;48.568;7.870;2023-01-15T13:15:00;0.60;;;0.40;;
7116;SDS011;3600;48.568;7.870;2023-01-15T13:26:57;2.97;;;1.00;;
7116;SDS011;3600;48.568;7.870;2023-01-15T13:34:45;0.83;;;0.70;;
7116;SDS011;3600;48.568;7.870;2023-01-15T13:37:33;1.90;;;0.93;;
7116;SDS011;3600;48.568;7.870;2023-01-15T13:40:09;0.90;;;0.60;;
7116;SDS011;3600;48.568;7.870;2023-01-15T13:43:00;0.60;;;0.60;;
7116;SDS011;3600;48.568;7.870;2023-01-15T13:48:13;3.23;;;0.87;;
7116;SDS011;3600;48.568;7.870;2023-01-15T13:50:52;1.07;;;0.97;;
7116;SDS011;3600;48.568;7.870;2023-01-15T13:53:27;1.00;;;0.90;;
7116;SDS011;3600;48.568;7.870;2023-01-15T13:56:10;0.80;;;0.80;;
7116;SDS011;3600;48.568;7.870;2023-01-15T14:01:22;1.00;;;0.70;;
7116;SDS011;3600;48.568;7.870;2023-01-15T14:23:42;1.00;;;0.90;;
7116;SDS011;3600;48.568;7.870;2023-01-15T14:34:39;1.27;;;0.53;;
7116;SDS011;3600;48.568;7.870;2023-01-15T14:39:46;0.70;;;0.70;;
7116;SDS011;3600;48.568;7.870;2023-01-15T14:47:47;1.20;;;0.90;;
7116;SDS011;3600;48.568;7.870;2023-01-15T14:52:49;4.20;;;1.53;;
7116;SDS011;3600;48.568;7.870;2023-01-15T14:55:18;1.10;;;1.00;;
7116;SDS011;3600;48.568;7.870;2023-01-15T14:58:10;1.97;;;0.90;;
7116;SDS011;3600;48.568;7.870;2023-01-15T15:00:41;1.10;;;0.50;;
7116;SDS011;3600;48.568;7.870;2023-01-15T15:03:18;0.50;;;0.50;;
7116;SDS011;3600;48.568;7.870;2023-01-15T15:05:51;1.00;;;0.90;;
7116;SDS011;3600;48.568;7.870;2023-01-15T15:08:18;2.33;;;1.23;;
7116;SDS011;3600;48.568;7.870;2023-01-15T15:10:50;0.83;;;0.73;;
7116;SDS011;3600;48.568;7.870;2023-01-15T15:13:27;1.70;;;0.87;;
7116;SDS011;3600;48.568;7.870;2023-01-15T15:15:58;4.10;;;0.90;;
7116;SDS011;3600;48.568;7.870;2023-01-15T15:18:53;1.57;;;0.80;;
7116;SDS011;3600;48.568;7.870;2023-01-15T15:21:27;1.50;;;1.30;;
7116;SDS011;3600;48.568;7.870;2023-01-15T15:24:17;1.97;;;1.40;;
7116;SDS011;3600;48.568;7.870;2023-01-15T15:26:49;2.37;;;1.40;;
7116;SDS011;3600;48.568;7.870;2023-01-15T15:29:17;1.17;;;1.07;;
7116;SDS011;3600;48.568;7.870;2023-01-15T15:31:46;1.40;;;1.30;;
7116;SDS011;3600;48.568;7.870;2023-01-15T15:34:18;2.33;;;1.23;;
7116;SDS011;3600;48.568;7.870;2023-01-15T15:36:52;2.20;;;1.13;;
7116;SDS011;3600;48.568;7.870;2023-01-15T15:39:25;1.07;;;1.00;;
7116;SDS011;3600;48.568;7.870;2023-01-15T15:41:53;1.50;;;0.93;;
7116;SDS011;3600;48.568;7.870;2023-01-15T15:44:54;1.83;;;0.90;;
7116;SDS011;3600;48.568;7.870;2023-01-15T15:47:42;2.73;;;0.87;;
7116;SDS011;3600;48.568;7.870;2023-01-15T15:50:30;2.23;;;1.37;;
7116;SDS011;3600;48.568;7.870;2023-01-15T15:52:59;1.00;;;0.90;;
7116;SDS011;3600;48.568;7.870;2023-01-15T15:55:41;1.77;;;1.10;;
7116;SDS011;3600;48.568;7.870;2023-01-15T15:58:12;2.87;;;1.40;;
7116;SDS011;3600;48.568;7.870;2023-01-15T16:00:47;2.50;;;1.37;;
7116;SDS011;3600;48.568;7.870;2023-01-15T16:03:23;2.43;;;1.20;;
7116;SDS011;3600;48.568;7.870;2023-01-15T16:05:59;0.80;;;0.80;;
7116;SDS011;3600;48.568;7.870;2023-01-15T16:08:28;3.33;;;1.30;;
7116;SDS011;3600;48.568;7.870;2023-01-15T16:11:14;1.47;;;1.30;;
7116;SDS011;3600;48.568;7.870;2023-01-15T16:13:45;3.03;;;1.60;;
7116;SDS011;3600;48.568;7.870;2023-01-15T16:16:14;1.53;;;1.37;;
7116;SDS011;3600;48.568;7.870;2023-01-15T16:18:43;2.07;;;1.37;;
7116;SDS011;3600;48.568;7.870;2023-01-15T16:21:16;3.13;;;1.40;;
7116;SDS011;3600;48.568;7.870;2023-01-15T16:23:58;2.27;;;1.43;;
7116;SDS011;3600;48.568;7.870;2023-01-15T16:26:33;2.00;;;1.30;;
7116;SDS011;3600;48.568;7.870;2023-01-15T16:29:04;3.87;;;1.40;;
7116;SDS011;3600;48.568;7.870;2023-01-15T16:31:36;1.73;;;1.20;;
7116;SDS011;3600;48.568;7.870;2023-01-15T16:34:03;2.10;;;1.23;;
7116;SDS011;3600;48.568;7.870;2023-01-15T16:36:40;2.93;;;1.30;;
7116;SDS011;3600;48.568;7.870;2023-01-15T16:39:19;1.90;;;1.30;;
7116;SDS011;3600;48.568;7.870;2023-01-15T16:41:53;2.23;;;1.17;;
7116;SDS011;3600;48.568;7.870;2023-01-15T16:44:30;1.60;;;1.43;;
7116;SDS011;3600;48.568;7.870;2023-01-15T16:47:02;2.33;;;1.40;;
7116;SDS011;3600;48.568;7.870;2023-01-15T16:49:31;1.80;;;1.60;;
7116;SDS011;3600;48.568;7.870;2023-01-15T16:51:59;2.67;;;1.63;;
7116;SDS011;3600;48.568;7.870;2023-01-15T16:56:58;2.77;;;1.63;;
7116;SDS011;3600;48.568;7.870;2023-01-15T17:02:02;4.13;;;1.67;;
7116;SDS011;3600;48.568;7.870;2023-01-15T17:04:37;2.00;;;1.63;;
7116;SDS011;3600;48.568;7.870;2023-01-15T17:07:15;1.63;;;1.20;;
7116;SDS011;3600;48.568;7.870;2023-01-15T17:09:53;1.53;;;1.13;;
7116;SDS011;3600;48.568;7.870;2023-01-15T17:12:29;3.50;;;1.40;;
7116;SDS011;3600;48.568;7.870;2023-01-15T17:17:42;2.33;;;1.30;;
7116;SDS011;3600;48.568;7.870;2023-01-15T17:20:13;1.47;;;1.10;;
7116;SDS011;3600;48.568;7.870;2023-01-15T17:22:40;2.57;;;1.30;;
7116;SDS011;3600;48.568;7.870;2023-01-15T17:25:20;1.30;;;0.77;;
7116;SDS011;3600;48.568;7.870;2023-01-15T17:27:49;1.30;;;0.93;;
7116;SDS011;3600;48.568;7.870;2023-01-15T17:30:16;4.47;;;1.10;;
7116;SDS011;3600;48.568;7.870;2023-01-15T17:32:43;1.40;;;1.30;;
7116;SDS011;3600;48.568;7.870;2023-01-15T17:35:21;2.50;;;1.20;;
7116;SDS011;3600;48.568;7.870;2023-01-15T17:37:50;3.20;;;1.23;;
7116;SDS011;3600;48.568;7.870;2023-01-15T17:40:17;1.53;;;1.27;;
7116;SDS011;3600;48.568;7.870;2023-01-15T17:42:44;1.83;;;1.00;;
7116;SDS011;3600;48.568;7.870;2023-01-15T17:45:25;2.70;;;1.30;;
7116;SDS011;3600;48.568;7.870;2023-01-15T17:47:53;0.73;;;0.73;;
7116;SDS011;3600;48.568;7.870;2023-01-15T17:50:20;1.37;;;0.90;;
7116;SDS011;3600;48.568;7.870;2023-01-15T17:52:47;3.17;;;1.00;;
7116;SDS011;3600;48.568;7.870;2023-01-15T17:55:16;1.43;;;1.23;;
7116;SDS011;3600;48.568;7.870;2023-01-15T17:58:03;0.77;;;0.77;;
7116;SDS011;3600;48.568;7.870;2023-01-15T18:00:48;0.97;;;0.83;;
7116;SDS011;3600;48.568;7.870;2023-01-15T18:03:36;3.50;;;1.00;;
7116;SDS011;3600;48.568;7.870;2023-01-15T18:06:25;1.50;;;0.90;;
7116;SDS011;3600;48.568;7.870;2023-01-15T18:08:52;2.97;;;1.20;;